createdAt,value
2022-10-31T00:00:47.431Z,14.88
2022-10-31T00:03:13.890Z,17.48
2022-10-31T00:05:44.808Z,15.02
2022-10-31T00:08:11.281Z,12.43
2022-10-31T00:10:45.276Z,17.50
2022-10-31T00:13:13.044Z,11.85
2022-10-31T00:15:40.841Z,10.77
2022-10-31T00:18:09.062Z,13.13
2022-10-31T00:20:35.701Z,16.98
2022-10-31T00:23:02.857Z,14.88
2022-10-31T00:25:33.539Z,11.73
2022-10-31T00:28:00.342Z,13.27
2022-10-31T00:30:27.137Z,11.75
2022-10-31T00:32:53.549Z,14.40
2022-10-31T00:35:19.959Z,10.20
2022-10-31T00:37:46.415Z,12.07
2022-10-31T00:40:13.116Z,10.52
2022-10-31T00:42:42.636Z,9.60
2022-10-31T00:45:10.959Z,10.95
2022-10-31T00:47:38.225Z,10.85
2022-10-31T00:50:06.534Z,9.32
2022-10-31T00:52:33.076Z,13.32
2022-10-31T00:54:59.552Z,10.00
2022-10-31T00:57:25.951Z,10.27
2022-10-31T00:59:52.344Z,11.15
2022-10-31T01:02:18.831Z,13.15
2022-10-31T01:04:45.328Z,9.93
2022-10-31T01:07:13.224Z,11.48
2022-10-31T01:09:39.650Z,11.90
2022-10-31T01:12:06.274Z,18.77
2022-10-31T01:14:32.719Z,9.48
2022-10-31T01:16:59.125Z,9.70
2022-10-31T01:19:25.553Z,12.38
2022-10-31T01:21:55.482Z,11.80
2022-10-31T01:24:22.004Z,9.63
2022-10-31T01:26:48.509Z,12.00
2022-10-31T01:29:14.996Z,10.70
2022-10-31T01:31:41.544Z,10.40
2022-10-31T01:34:08.178Z,15.60
2022-10-31T01:36:37.316Z,13.40
2022-10-31T01:39:06.835Z,10.43
2022-10-31T01:41:36.003Z,9.88
2022-10-31T01:44:24.473Z,12.55
2022-10-31T01:47:15.070Z,10.15
2022-10-31T01:49:50.062Z,8.23
2022-10-31T01:54:52.124Z,12.07
2022-10-31T01:57:21.400Z,8.65
2022-10-31T01:59:52.436Z,10.82
2022-10-31T02:02:19.977Z,12.85
2022-10-31T02:04:48.702Z,10.82
2022-10-31T02:09:46.294Z,12.43
2022-10-31T02:12:13.466Z,12.38
2022-10-31T02:14:40.910Z,11.40
2022-10-31T02:17:07.350Z,13.43
2022-10-31T02:19:43.038Z,12.02
2022-10-31T02:22:36.391Z,12.68
2022-10-31T02:25:50.481Z,11.32
2022-10-31T02:28:41.605Z,10.77
2022-10-31T02:31:42.166Z,10.13
2022-10-31T02:34:20.980Z,12.27
2022-10-31T02:36:57.796Z,12.65
2022-10-31T02:39:30.165Z,9.00
2022-10-31T02:42:08.777Z,9.20
2022-10-31T02:44:40.652Z,10.77
2022-10-31T02:47:15.297Z,8.68
2022-10-31T02:49:52.697Z,9.90
2022-10-31T02:52:26.471Z,9.18
2022-10-31T02:54:54.145Z,9.15
2022-10-31T02:57:32.015Z,7.95
2022-10-31T03:00:05.428Z,10.93
2022-10-31T03:02:56.869Z,8.45
2022-10-31T03:05:52.495Z,11.57
2022-10-31T03:08:28.151Z,12.15
2022-10-31T03:10:59.808Z,9.50
2022-10-31T03:13:58.734Z,7.15
2022-10-31T03:16:31.299Z,9.05
2022-10-31T03:19:05.628Z,7.80
2022-10-31T03:21:44.476Z,6.45
2022-10-31T03:24:13.699Z,6.75
2022-10-31T03:26:47.910Z,13.00
2022-10-31T03:29:20.688Z,7.35
2022-10-31T03:31:53.079Z,13.02
2022-10-31T03:34:21.043Z,8.02
2022-10-31T03:36:55.455Z,7.72
2022-10-31T03:39:24.230Z,7.22
2022-10-31T03:42:23.260Z,12.55
2022-10-31T03:45:03.221Z,10.60
2022-10-31T03:47:36.878Z,7.25
2022-10-31T03:50:05.177Z,9.55
2022-10-31T03:52:42.687Z,13.13
2022-10-31T03:55:19.402Z,15.00
2022-10-31T03:58:04.579Z,8.85
2022-10-31T04:00:34.424Z,9.07
2022-10-31T04:03:15.308Z,7.00
2022-10-31T04:05:44.768Z,7.05
2022-10-31T04:08:16.228Z,8.23
2022-10-31T04:10:47.957Z,8.95
2022-10-31T04:15:55.517Z,10.10
2022-10-31T04:18:24.982Z,11.45
2022-10-31T04:21:04.168Z,13.70
2022-10-31T04:23:31.488Z,16.13
2022-10-31T04:25:57.910Z,13.40
2022-10-31T04:28:24.417Z,14.15
2022-10-31T04:30:51.379Z,15.55
2022-10-31T04:33:18.282Z,17.85
2022-10-31T04:35:44.870Z,11.80
2022-10-31T04:38:11.446Z,17.52
2022-10-31T04:40:37.942Z,24.10
2022-10-31T04:43:04.834Z,22.67
2022-10-31T04:45:31.381Z,15.40
2022-10-31T04:47:58.056Z,13.32
2022-10-31T04:50:24.964Z,11.57
2022-10-31T04:52:51.545Z,10.75
2022-10-31T04:55:18.051Z,12.43
2022-10-31T04:57:46.623Z,12.73
2022-10-31T05:02:52.104Z,9.43
2022-10-31T05:05:20.749Z,16.95
2022-10-31T05:07:48.842Z,11.35
2022-10-31T05:10:20.399Z,14.43
2022-10-31T05:12:56.301Z,10.80
2022-10-31T05:15:24.220Z,9.60
2022-10-31T05:17:51.426Z,8.18
2022-10-31T05:20:19.503Z,8.10
2022-10-31T05:22:54.274Z,7.65
2022-10-31T05:25:22.838Z,8.68
2022-10-31T05:30:19.788Z,9.27
2022-10-31T05:32:48.491Z,9.55
2022-10-31T05:35:36.590Z,10.45
2022-10-31T05:38:03.067Z,9.13
2022-10-31T05:40:29.561Z,12.15
2022-10-31T05:42:59.655Z,12.27
2022-10-31T05:45:26.509Z,14.05
2022-10-31T05:47:53.837Z,9.55
2022-10-31T05:50:20.725Z,7.65
2022-10-31T05:52:47.440Z,14.18
2022-10-31T05:55:13.974Z,12.07
2022-10-31T05:57:40.424Z,9.93
2022-10-31T06:03:06.108Z,22.48
2022-10-31T06:05:33.857Z,9.55
2022-10-31T06:08:01.023Z,9.38
2022-10-31T06:10:28.147Z,13.02
2022-10-31T06:12:54.567Z,13.13
2022-10-31T06:15:24.141Z,13.75
2022-10-31T06:18:05.929Z,11.95
2022-10-31T06:20:33.568Z,8.13
2022-10-31T06:23:00.532Z,9.40
2022-10-31T06:25:28.063Z,9.55
2022-10-31T06:27:55.159Z,10.32
2022-10-31T06:30:21.999Z,12.45
2022-10-31T06:32:48.508Z,15.73
2022-10-31T06:35:15.261Z,10.88
2022-10-31T06:37:44.336Z,9.40
2022-10-31T06:40:13.177Z,8.43
2022-10-31T06:42:39.601Z,11.45
2022-10-31T06:45:06.486Z,9.93
2022-10-31T06:47:35.288Z,13.20
2022-10-31T06:50:08.297Z,8.18
2022-10-31T06:52:34.709Z,10.43
2022-10-31T06:55:01.088Z,9.45
2022-10-31T06:57:27.510Z,52.63
2022-10-31T06:59:53.892Z,13.20
2022-10-31T07:02:34.922Z,15.73
2022-10-31T07:05:01.474Z,14.55
2022-10-31T07:07:27.936Z,14.40
2022-10-31T07:09:54.366Z,14.05
2022-10-31T07:12:20.777Z,9.88
2022-10-31T07:14:47.202Z,9.43
2022-10-31T07:17:13.665Z,15.80
2022-10-31T07:19:40.097Z,9.75
2022-10-31T07:22:06.539Z,10.52
2022-10-31T07:24:32.990Z,11.27
2022-10-31T07:29:30.697Z,11.95
2022-10-31T07:31:57.138Z,15.13
2022-10-31T07:34:23.557Z,13.27
2022-10-31T07:36:51.660Z,8.85
2022-10-31T07:39:18.086Z,10.63
2022-10-31T07:41:44.489Z,9.65
2022-10-31T07:44:10.900Z,10.77
2022-10-31T07:46:37.308Z,8.73
2022-10-31T07:49:03.872Z,10.30
2022-10-31T07:51:30.400Z,14.88
2022-10-31T07:53:59.913Z,12.10
2022-10-31T07:56:26.328Z,10.10
2022-10-31T07:58:52.743Z,8.30
2022-10-31T08:01:19.188Z,9.13
2022-10-31T08:03:45.579Z,7.53
2022-10-31T08:06:11.981Z,8.60
2022-10-31T08:08:38.662Z,8.35
2022-10-31T08:11:05.193Z,11.55
2022-10-31T08:13:31.620Z,9.68
2022-10-31T08:16:04.281Z,12.07
2022-10-31T08:18:31.236Z,14.82
2022-10-31T08:20:57.655Z,10.88
2022-10-31T08:23:24.105Z,12.57
2022-10-31T08:25:50.574Z,11.18
2022-10-31T08:28:16.998Z,11.13
2022-10-31T08:30:43.472Z,10.52
2022-10-31T08:33:14.074Z,10.07
2022-10-31T08:35:41.091Z,15.20
2022-10-31T08:38:09.260Z,11.82
2022-10-31T08:40:36.579Z,16.63
2022-10-31T08:43:04.314Z,13.65
2022-10-31T08:45:32.560Z,10.00
2022-10-31T08:48:01.012Z,25.50
2022-10-31T08:50:29.129Z,19.60
2022-10-31T08:53:17.093Z,13.15
2022-10-31T08:55:44.489Z,12.73
2022-10-31T08:58:13.752Z,12.50
2022-10-31T09:00:40.294Z,15.25
2022-10-31T09:03:12.592Z,16.23
2022-10-31T09:05:39.758Z,18.80
2022-10-31T09:08:11.616Z,14.13
2022-10-31T09:10:42.389Z,12.80
2022-10-31T09:13:16.252Z,15.07
2022-10-31T09:15:44.930Z,11.07
2022-10-31T09:18:12.631Z,9.50
2022-10-31T09:20:40.493Z,11.45
2022-10-31T09:23:11.512Z,12.90
2022-10-31T09:25:38.161Z,14.45
2022-10-31T09:28:06.963Z,13.65
2022-10-31T09:30:35.168Z,20.85
2022-10-31T09:33:08.155Z,11.73
2022-10-31T09:35:34.738Z,14.48
2022-10-31T09:38:07.057Z,16.30
2022-10-31T09:40:42.782Z,16.15
2022-10-31T09:43:27.782Z,17.27
2022-10-31T09:46:08.564Z,17.50
2022-10-31T09:48:44.192Z,12.55
2022-10-31T09:51:29.910Z,14.60
2022-10-31T09:54:17.189Z,11.63
2022-10-31T09:56:45.040Z,13.35
2022-10-31T09:59:36.788Z,11.18
2022-10-31T10:02:30.977Z,11.65
2022-10-31T10:05:00.799Z,10.93
2022-10-31T10:07:56.345Z,10.93
2022-10-31T10:10:51.040Z,12.98
2022-10-31T10:13:41.037Z,9.85
2022-10-31T10:16:13.932Z,10.80
2022-10-31T10:18:59.062Z,12.80
2022-10-31T10:21:52.034Z,13.65
2022-10-31T10:24:18.498Z,11.98
2022-10-31T10:26:58.773Z,10.95
2022-10-31T10:29:38.561Z,10.82
2022-10-31T10:32:19.051Z,15.68
2022-10-31T10:35:14.653Z,19.88
2022-10-31T10:37:44.319Z,12.80
2022-10-31T10:40:19.209Z,11.30
2022-10-31T10:43:21.108Z,11.15
2022-10-31T10:46:41.767Z,17.17
2022-10-31T10:49:26.944Z,12.95
2022-10-31T10:52:19.268Z,12.70
2022-10-31T10:55:33.847Z,13.20
2022-10-31T10:58:07.568Z,11.35
2022-10-31T11:00:42.967Z,11.63
2022-10-31T11:03:10.664Z,12.73
2022-10-31T11:05:41.523Z,12.57
2022-10-31T11:08:08.836Z,13.43
2022-10-31T11:10:36.123Z,14.30
2022-10-31T11:13:14.737Z,15.85
2022-10-31T11:16:20.615Z,15.32
2022-10-31T11:18:48.278Z,16.33
2022-10-31T11:21:22.359Z,17.02
2022-10-31T11:23:48.774Z,13.60
2022-10-31T11:26:22.103Z,14.65
2022-10-31T11:28:59.599Z,13.30
2022-10-31T11:31:27.637Z,15.77
2022-10-31T11:34:00.809Z,18.95
2022-10-31T11:36:45.725Z,15.35
2022-10-31T11:39:22.285Z,15.57
2022-10-31T11:41:50.494Z,15.60
2022-10-31T11:44:23.502Z,15.40
2022-10-31T11:46:56.710Z,17.58
2022-10-31T11:49:40.372Z,16.23
2022-10-31T11:52:24.224Z,24.25
2022-10-31T11:55:03.150Z,18.30
2022-10-31T11:57:42.996Z,22.00
2022-10-31T12:00:24.715Z,15.50
2022-10-31T12:02:52.009Z,14.40
2022-10-31T12:05:22.466Z,15.95
2022-10-31T12:07:50.137Z,17.88
2022-10-31T12:10:20.264Z,17.63
2022-10-31T12:13:11.062Z,14.50
2022-10-31T12:15:41.587Z,15.75
2022-10-31T12:18:39.417Z,17.95
2022-10-31T12:21:21.098Z,19.33
2022-10-31T12:23:47.466Z,21.52
2022-10-31T12:26:26.017Z,19.08
2022-10-31T12:28:59.754Z,17.60
2022-10-31T12:31:38.463Z,15.40
2022-10-31T12:34:50.120Z,20.48
2022-10-31T12:37:34.774Z,14.90
2022-10-31T12:40:28.791Z,21.83
2022-10-31T12:43:11.769Z,17.80
2022-10-31T12:45:52.976Z,16.98
2022-10-31T12:48:25.496Z,16.10
2022-10-31T12:51:39.442Z,16.77
2022-10-31T12:54:20.709Z,14.75
2022-10-31T12:57:08.999Z,24.30
2022-10-31T12:59:41.506Z,18.48
2022-10-31T13:02:24.148Z,16.00
2022-10-31T13:04:57.381Z,19.20
2022-10-31T13:08:04.314Z,21.40
2022-10-31T13:10:36.337Z,17.80
2022-10-31T13:13:14.292Z,14.07
2022-10-31T13:16:04.636Z,20.80
2022-10-31T13:18:49.211Z,14.82
2022-10-31T13:21:57.570Z,16.63
2022-10-31T13:24:40.335Z,15.70
2022-10-31T13:27:57.655Z,18.02
2022-10-31T13:30:27.708Z,16.58
2022-10-31T13:33:02.297Z,17.42
2022-10-31T13:35:33.972Z,15.00
2022-10-31T13:38:25.174Z,12.00
2022-10-31T13:40:57.643Z,18.75
2022-10-31T13:43:55.329Z,15.82
2022-10-31T13:46:33.867Z,20.92
2022-10-31T13:49:01.119Z,16.60
2022-10-31T13:51:34.893Z,17.65
2022-10-31T13:54:21.652Z,15.88
2022-10-31T13:56:54.493Z,18.98
2022-10-31T13:59:25.732Z,24.92
2022-10-31T14:02:13.809Z,15.18
2022-10-31T14:04:56.180Z,18.25
2022-10-31T14:07:24.839Z,18.67
2022-10-31T14:09:56.936Z,27.23
2022-10-31T14:12:42.717Z,19.58
2022-10-31T14:15:15.125Z,20.45
2022-10-31T14:17:56.126Z,14.88
2022-10-31T14:20:45.141Z,21.20
2022-10-31T14:23:32.903Z,23.23
2022-10-31T14:26:18.098Z,22.67
2022-10-31T14:28:45.787Z,18.58
2022-10-31T14:31:36.807Z,18.10
2022-10-31T14:34:27.002Z,33.05
2022-10-31T14:37:15.332Z,22.90
2022-10-31T14:40:06.944Z,19.30
2022-10-31T14:42:34.040Z,18.73
2022-10-31T14:45:15.271Z,18.58
2022-10-31T14:48:09.758Z,20.23
2022-10-31T14:50:48.286Z,17.27
2022-10-31T14:53:36.895Z,18.67
2022-10-31T14:56:11.229Z,19.75
2022-10-31T14:58:48.276Z,18.65
2022-10-31T15:01:29.792Z,20.48
2022-10-31T15:04:22.586Z,17.00
2022-10-31T15:07:23.471Z,18.40
2022-10-31T15:09:59.476Z,19.65
2022-10-31T15:12:34.740Z,18.05
2022-10-31T15:15:16.170Z,18.25
2022-10-31T15:17:46.542Z,21.63
2022-10-31T15:20:18.420Z,18.33
2022-10-31T15:22:45.260Z,21.00
2022-10-31T15:25:20.030Z,17.42
2022-10-31T15:27:48.007Z,19.17
2022-10-31T15:30:23.554Z,20.58
2022-10-31T15:32:57.457Z,21.33
2022-10-31T15:37:53.421Z,18.52
2022-10-31T15:40:23.068Z,23.63
2022-10-31T15:43:01.148Z,23.13
2022-10-31T15:45:31.168Z,19.77
2022-10-31T15:48:05.599Z,20.23
2022-10-31T15:50:41.485Z,23.70
2022-10-31T15:53:18.493Z,20.15
2022-10-31T15:56:06.094Z,15.85
2022-10-31T15:58:35.567Z,17.98
2022-10-31T16:01:05.765Z,21.38
2022-10-31T16:03:34.100Z,19.52
2022-10-31T16:11:06.944Z,30.35
2022-10-31T16:13:36.771Z,29.63
2022-10-31T16:16:34.255Z,21.58
2022-10-31T16:19:00.737Z,21.90
2022-10-31T16:21:33.094Z,17.92
2022-10-31T16:24:25.659Z,19.15
2022-10-31T16:26:55.109Z,21.42
2022-10-31T16:29:44.493Z,23.55
2022-10-31T16:32:37.945Z,20.65
2022-10-31T16:35:10.596Z,17.95
2022-10-31T16:37:40.973Z,23.38
2022-10-31T16:40:10.124Z,36.05
2022-10-31T16:42:36.677Z,28.38
2022-10-31T16:45:06.149Z,24.60
2022-10-31T16:47:32.648Z,36.17
2022-10-31T16:50:00.959Z,32.83
2022-10-31T16:52:27.652Z,33.67
2022-10-31T16:54:55.119Z,34.72
2022-10-31T16:57:28.207Z,66.93
2022-10-31T16:59:58.019Z,37.00
2022-10-31T17:02:24.821Z,35.97
2022-10-31T17:04:53.942Z,36.70
2022-10-31T17:07:24.943Z,33.88
2022-10-31T17:09:51.336Z,35.47
2022-10-31T17:12:22.582Z,31.20
2022-10-31T17:14:52.720Z,27.80
2022-10-31T17:17:19.414Z,24.52
2022-10-31T17:19:45.867Z,27.02
2022-10-31T17:22:14.844Z,28.08
2022-10-31T17:25:15.403Z,29.02
2022-10-31T17:27:47.350Z,32.25
2022-10-31T17:30:18.786Z,28.98
2022-10-31T17:32:46.875Z,31.20
2022-10-31T17:35:14.983Z,25.73
2022-10-31T17:37:56.596Z,30.33
2022-10-31T17:40:32.151Z,26.27
2022-10-31T17:43:05.524Z,26.92
2022-10-31T17:45:45.040Z,21.80
2022-10-31T17:48:12.815Z,25.58
2022-10-31T17:50:39.820Z,25.08
2022-10-31T17:53:06.300Z,31.35
2022-10-31T17:55:36.257Z,32.80
2022-10-31T17:58:04.648Z,23.45
2022-10-31T18:00:31.397Z,22.55
2022-10-31T18:02:57.929Z,29.30
2022-10-31T18:05:24.418Z,20.98
2022-10-31T18:07:51.242Z,22.10
2022-10-31T18:10:17.783Z,23.10
2022-10-31T18:12:44.254Z,24.60
2022-10-31T18:15:10.944Z,20.20
2022-10-31T18:17:41.009Z,26.70
2022-10-31T18:20:09.781Z,31.17
2022-10-31T18:22:36.191Z,29.40
2022-10-31T18:25:03.541Z,25.55
2022-10-31T18:27:29.929Z,20.27
2022-10-31T18:29:56.347Z,20.80
2022-10-31T18:32:22.993Z,19.38
2022-10-31T18:34:49.446Z,19.25
2022-10-31T18:37:15.853Z,15.70
2022-10-31T18:39:42.361Z,18.38
2022-10-31T18:42:08.804Z,23.45
2022-10-31T18:44:35.268Z,27.25
2022-10-31T18:47:01.682Z,22.13
2022-10-31T18:49:32.528Z,25.42
2022-10-31T18:51:59.750Z,24.63
2022-10-31T18:54:26.204Z,22.63
2022-10-31T18:56:52.594Z,25.30
2022-10-31T18:59:19.024Z,19.95
2022-10-31T19:01:45.517Z,18.60
2022-10-31T19:04:12.128Z,25.35
2022-10-31T19:06:38.651Z,28.67
2022-10-31T19:09:08.937Z,22.95
2022-10-31T19:11:37.305Z,34.00
2022-10-31T19:14:04.648Z,44.13
2022-10-31T19:16:31.793Z,30.55
2022-10-31T19:19:00.008Z,24.08
2022-10-31T19:21:26.923Z,24.17
2022-10-31T19:23:56.215Z,21.20
2022-10-31T19:26:23.195Z,21.17
2022-10-31T19:28:49.615Z,18.67
2022-10-31T19:31:16.131Z,22.10
2022-10-31T19:33:42.571Z,22.98
2022-10-31T19:36:11.941Z,21.65
2022-10-31T19:38:41.668Z,21.35
2022-10-31T19:41:22.875Z,20.90
2022-10-31T19:43:49.935Z,19.17
2022-10-31T19:46:27.757Z,23.95
2022-10-31T19:49:04.374Z,26.85
2022-10-31T19:51:30.910Z,19.63
2022-10-31T19:53:57.380Z,24.05
2022-10-31T19:56:25.101Z,14.73
2022-10-31T19:58:52.052Z,15.82
2022-10-31T20:01:20.798Z,16.20
2022-10-31T20:03:47.769Z,19.42
2022-10-31T20:06:19.635Z,18.75
2022-10-31T20:08:46.063Z,16.48
2022-10-31T20:11:12.515Z,13.23
2022-10-31T20:13:38.924Z,15.95
2022-10-31T20:16:09.161Z,18.38
2022-10-31T20:19:13.591Z,21.30
2022-10-31T20:23:30.276Z,19.13
2022-10-31T20:26:14.932Z,14.60
2022-10-31T20:28:43.627Z,15.13
2022-10-31T20:31:16.706Z,14.57
2022-10-31T20:33:43.244Z,26.63
2022-10-31T20:36:10.055Z,23.70
2022-10-31T20:38:41.396Z,19.58
2022-10-31T20:41:10.268Z,26.25
2022-10-31T20:43:38.103Z,31.40
2022-10-31T20:46:16.397Z,35.10
2022-10-31T20:48:42.937Z,25.10
2022-10-31T20:51:18.957Z,25.02
2022-10-31T20:53:45.423Z,24.70
2022-10-31T20:56:16.495Z,24.80
2022-10-31T20:58:43.835Z,22.20
2022-10-31T21:01:19.475Z,20.27
2022-10-31T21:03:46.315Z,18.85
2022-10-31T21:06:13.589Z,26.42
2022-10-31T21:08:40.235Z,23.58
2022-10-31T21:11:09.625Z,23.45
2022-10-31T21:13:40.689Z,25.75
2022-10-31T21:16:14.007Z,31.77
2022-10-31T21:18:42.606Z,25.88
2022-10-31T21:21:16.762Z,25.50
2022-10-31T21:23:44.223Z,22.73
2022-10-31T21:26:14.047Z,19.75
2022-10-31T21:28:40.622Z,23.35
2022-10-31T21:31:09.587Z,19.08
2022-10-31T21:33:36.485Z,29.33
2022-10-31T21:36:03.813Z,22.13
2022-10-31T21:38:30.569Z,25.70
2022-10-31T21:41:14.931Z,28.83
2022-10-31T21:43:43.576Z,31.98
2022-10-31T21:46:15.680Z,24.08
2022-10-31T21:48:43.598Z,20.33
2022-10-31T21:51:12.772Z,18.08
2022-10-31T21:53:58.379Z,19.25
2022-10-31T21:56:25.868Z,20.23
2022-10-31T21:58:53.297Z,17.70
2022-10-31T22:01:20.644Z,18.50
2022-10-31T22:03:47.520Z,19.88
2022-10-31T22:06:15.019Z,27.83
2022-10-31T22:08:41.896Z,15.77
2022-10-31T22:11:13.631Z,16.20
2022-10-31T22:13:41.331Z,20.77
2022-10-31T22:16:10.161Z,15.32
2022-10-31T22:18:37.469Z,15.95
2022-10-31T22:21:06.834Z,17.08
2022-10-31T22:23:33.363Z,15.38
2022-10-31T22:26:16.239Z,18.55
2022-10-31T22:28:44.497Z,21.33
2022-10-31T22:31:13.855Z,15.43
2022-10-31T22:33:41.271Z,18.30
2022-10-31T22:36:10.829Z,17.55
2022-10-31T22:38:41.858Z,18.77
2022-10-31T22:41:11.504Z,22.35
2022-10-31T22:43:38.720Z,20.23
2022-10-31T22:46:07.299Z,17.17
2022-10-31T22:48:39.518Z,17.35
2022-10-31T22:51:07.723Z,15.80
2022-10-31T22:53:35.762Z,18.13
2022-10-31T22:56:03.317Z,19.08
2022-10-31T22:58:32.652Z,18.83
2022-10-31T23:01:00.052Z,20.08
2022-10-31T23:03:26.763Z,19.13
2022-10-31T23:05:57.614Z,19.63
2022-10-31T23:08:24.652Z,26.02
2022-10-31T23:10:51.459Z,18.95
2022-10-31T23:13:36.437Z,22.73
2022-10-31T23:16:05.834Z,26.20
2022-10-31T23:18:49.588Z,23.67
2022-10-31T23:21:37.274Z,19.17
2022-10-31T23:24:04.150Z,21.05
2022-10-31T23:26:49.323Z,18.30
2022-10-31T23:29:15.739Z,17.73
2022-10-31T23:31:42.132Z,17.42
2022-10-31T23:34:08.558Z,21.27
2022-10-31T23:36:34.986Z,14.73
2022-10-31T23:39:01.437Z,24.00
2022-10-31T23:41:27.860Z,17.13
2022-10-31T23:43:54.483Z,19.92
2022-10-31T23:46:20.962Z,18.27
2022-10-31T23:48:50.773Z,19.27
2022-10-31T23:51:17.209Z,23.35
2022-10-31T23:53:45.533Z,20.40
2022-10-31T23:56:13.031Z,18.75
2022-10-31T23:58:39.691Z,18.20
